createdAt,value
2022-12-25T00:02:19.825Z,98037.00
2022-12-25T00:04:47.361Z,98035.91
2022-12-25T00:07:16.154Z,98032.69
2022-12-25T00:09:43.554Z,98032.63
2022-12-25T00:12:11.032Z,98035.03
2022-12-25T00:14:40.706Z,98024.63
2022-12-25T00:17:08.163Z,98025.97
2022-12-25T00:19:35.625Z,98030.75
2022-12-25T00:22:03.102Z,98019.84
2022-12-25T00:24:31.895Z,98021.94
2022-12-25T00:26:59.223Z,98017.41
2022-12-25T00:29:26.723Z,98019.31
2022-12-25T00:31:54.271Z,98016.91
2022-12-25T00:34:21.864Z,98022.28
2022-12-25T00:36:51.251Z,98018.81
2022-12-25T00:39:18.783Z,98023.69
2022-12-25T00:42:05.401Z,98024.31
2022-12-25T00:44:33.101Z,98024.13
2022-12-25T00:47:00.699Z,98019.44
2022-12-25T00:49:28.258Z,98019.22
2022-12-25T00:51:55.847Z,98016.19
2022-12-25T00:54:23.313Z,98019.88
2022-12-25T00:56:52.155Z,98025.88
2022-12-25T00:59:19.626Z,98029.53
2022-12-25T01:01:47.338Z,98037.69
2022-12-25T01:04:14.945Z,98029.56
2022-12-25T01:06:42.457Z,98030.34
2022-12-25T01:09:26.895Z,98043.16
2022-12-25T01:11:58.599Z,98042.28
2022-12-25T01:14:26.071Z,98041.59
2022-12-25T01:16:53.598Z,98039.72
2022-12-25T01:19:21.099Z,98037.09
2022-12-25T01:21:48.564Z,98034.91
2022-12-25T01:24:16.017Z,98041.72
2022-12-25T01:26:43.449Z,98045.06
2022-12-25T01:29:12.258Z,98036.13
2022-12-25T01:31:39.763Z,98034.34
2022-12-25T01:34:07.255Z,98041.09
2022-12-25T01:36:34.722Z,98043.31
2022-12-25T01:39:02.182Z,98038.19
2022-12-25T01:41:29.671Z,98042.03
2022-12-25T01:44:00.594Z,98028.94
2022-12-25T01:46:29.784Z,98038.69
2022-12-25T01:48:59.966Z,98037.56
2022-12-25T01:51:31.157Z,98039.91
2022-12-25T01:54:03.101Z,98048.03
2022-12-25T01:56:31.281Z,98042.59
2022-12-25T01:59:00.177Z,98045.25
2022-12-25T02:01:29.205Z,98041.41
2022-12-25T02:04:03.589Z,98045.25
2022-12-25T02:06:31.571Z,98042.09
2022-12-25T02:09:00.048Z,98042.78
2022-12-25T02:11:45.413Z,98046.28
2022-12-25T02:14:13.008Z,98048.63
2022-12-25T02:16:58.174Z,98047.78
2022-12-25T02:19:38.179Z,98050.94
2022-12-25T02:22:23.999Z,98052.19
2022-12-25T02:25:05.177Z,98047.97
2022-12-25T02:27:50.360Z,98046.13
2022-12-25T02:30:18.098Z,98045.97
2022-12-25T02:32:51.665Z,98055.47
2022-12-25T02:35:25.076Z,98052.31
2022-12-25T02:37:56.547Z,98052.03
2022-12-25T02:40:27.645Z,98043.91
2022-12-25T02:43:17.881Z,98045.69
2022-12-25T02:46:07.714Z,98052.53
2022-12-25T02:48:56.092Z,98048.16
2022-12-25T02:51:46.220Z,98051.97
2022-12-25T02:54:35.200Z,98039.16
2022-12-25T02:57:23.842Z,98030.50
2022-12-25T03:00:14.445Z,98033.16
2022-12-25T03:03:01.911Z,98045.84
2022-12-25T03:05:50.271Z,98040.69
2022-12-25T03:08:25.451Z,98021.81
2022-12-25T03:11:16.126Z,98026.03
2022-12-25T03:13:46.309Z,98016.66
2022-12-25T03:16:32.704Z,98017.66
2022-12-25T03:19:00.861Z,98014.69
2022-12-25T03:21:42.613Z,98013.19
2022-12-25T03:24:28.086Z,98000.31
2022-12-25T03:26:58.284Z,97997.97
2022-12-25T03:29:45.147Z,97999.50
2022-12-25T03:32:23.787Z,98004.66
2022-12-25T03:35:18.615Z,98006.84
2022-12-25T03:38:15.122Z,98008.53
2022-12-25T03:41:11.936Z,97995.22
2022-12-25T03:44:06.668Z,97990.84
2022-12-25T03:46:56.355Z,97977.84
2022-12-25T03:49:48.815Z,97971.66
2022-12-25T03:52:37.591Z,97971.84
2022-12-25T03:55:27.878Z,97968.69
2022-12-25T03:58:13.155Z,97967.03
2022-12-25T04:00:58.545Z,97965.69
2022-12-25T04:03:43.989Z,97970.19
2022-12-25T04:06:30.800Z,97981.03
2022-12-25T04:09:16.060Z,97988.38
2022-12-25T04:12:03.473Z,97994.19
2022-12-25T04:14:48.667Z,97983.88
2022-12-25T04:17:33.901Z,97977.53
2022-12-25T04:20:19.167Z,97981.72
2022-12-25T04:23:05.616Z,97977.56
2022-12-25T04:25:50.957Z,97980.38
2022-12-25T04:28:36.339Z,97988.56
2022-12-25T04:31:21.778Z,97998.91
2022-12-25T04:34:06.997Z,98008.94
2022-12-25T04:36:34.523Z,98003.91
2022-12-25T04:39:03.481Z,98005.56
2022-12-25T04:41:30.975Z,98006.91
2022-12-25T04:43:58.560Z,98013.25
2022-12-25T04:46:26.087Z,98011.25
2022-12-25T04:48:53.581Z,98015.59
2022-12-25T04:51:22.734Z,98012.25
2022-12-25T04:53:51.270Z,98009.59
2022-12-25T04:56:21.589Z,98009.59
2022-12-25T04:58:49.872Z,98018.91
2022-12-25T05:01:17.919Z,97998.28
2022-12-25T05:03:45.560Z,98007.41
2022-12-25T05:06:13.868Z,98001.94
2022-12-25T05:08:41.422Z,98007.41
2022-12-25T05:11:10.200Z,98012.44
2022-12-25T05:13:39.491Z,98010.28
2022-12-25T05:16:08.121Z,97996.94
2022-12-25T05:18:36.393Z,97995.28
2022-12-25T05:21:04.363Z,97992.13
2022-12-25T05:23:32.151Z,97997.78
2022-12-25T05:25:59.623Z,97991.41
2022-12-25T05:28:27.087Z,98008.22
2022-12-25T05:30:58.469Z,98000.41
2022-12-25T05:33:26.013Z,97991.06
2022-12-25T05:35:53.463Z,97987.72
2022-12-25T05:38:20.995Z,97990.06
2022-12-25T05:40:48.462Z,97989.22
2022-12-25T05:43:15.922Z,97983.06
2022-12-25T05:45:43.401Z,97974.25
2022-12-25T05:48:12.282Z,97970.91
2022-12-25T05:50:39.784Z,97971.72
2022-12-25T05:53:08.987Z,97971.03
2022-12-25T05:55:37.197Z,97971.09
2022-12-25T05:58:05.497Z,97972.91
2022-12-25T06:00:33.251Z,97984.88
2022-12-25T06:03:01.330Z,97995.34
2022-12-25T06:05:32.847Z,97986.88
2022-12-25T06:08:00.311Z,97983.22
2022-12-25T06:10:27.734Z,97978.25
2022-12-25T06:12:55.529Z,97981.41
2022-12-25T06:15:22.969Z,97982.41
2022-12-25T06:17:50.408Z,97991.06
2022-12-25T06:20:17.906Z,97991.22
2022-12-25T06:22:46.782Z,97994.72
2022-12-25T06:25:14.300Z,97987.22
2022-12-25T06:27:41.797Z,97988.22
2022-12-25T06:30:10.737Z,97983.09
2022-12-25T06:32:38.276Z,97978.06
2022-12-25T06:35:06.952Z,97977.25
2022-12-25T06:37:34.387Z,97971.94
2022-12-25T06:40:05.712Z,97972.56
2022-12-25T06:42:33.183Z,97990.06
2022-12-25T06:45:00.632Z,97992.22
2022-12-25T06:47:28.085Z,97997.53
2022-12-25T06:49:55.757Z,97993.88
2022-12-25T06:52:23.217Z,97993.75
2022-12-25T06:54:50.653Z,98001.13
2022-12-25T06:57:19.727Z,97997.00
2022-12-25T06:59:52.974Z,97993.38
2022-12-25T07:02:24.801Z,97998.56
2022-12-25T07:04:53.504Z,97987.41
2022-12-25T07:07:22.122Z,98001.53
2022-12-25T07:09:49.597Z,98003.72
2022-12-25T07:12:20.721Z,97999.56
2022-12-25T07:14:51.923Z,98003.53
2022-12-25T07:17:21.118Z,98009.03
2022-12-25T07:19:48.593Z,98005.38
2022-12-25T07:22:16.835Z,98004.19
2022-12-25T07:24:44.508Z,98001.53
2022-12-25T07:27:12.183Z,98001.56
2022-12-25T07:29:41.021Z,98001.56
2022-12-25T07:32:08.380Z,97998.22
2022-12-25T07:34:35.676Z,98001.22
2022-12-25T07:37:03.279Z,98014.22
2022-12-25T07:39:31.025Z,98012.19
2022-12-25T07:41:58.542Z,98001.38
2022-12-25T07:44:26.195Z,98001.75
2022-12-25T07:46:55.074Z,97999.22
2022-12-25T07:49:22.532Z,97988.56
2022-12-25T07:51:49.980Z,97984.06
2022-12-25T07:54:17.594Z,97978.72
2022-12-25T07:56:45.355Z,97988.03
2022-12-25T07:59:12.939Z,97978.59
2022-12-25T08:01:40.635Z,97981.22
2022-12-25T08:04:11.573Z,97973.56
2022-12-25T08:06:39.270Z,97989.25
2022-12-25T08:09:09.006Z,97984.19
2022-12-25T08:11:36.714Z,97985.72
2022-12-25T08:14:07.023Z,97989.88
2022-12-25T08:16:34.791Z,97987.72
2022-12-25T08:19:02.342Z,97970.25
2022-12-25T08:21:31.154Z,97970.25
2022-12-25T08:23:58.462Z,97973.41
2022-12-25T08:26:25.985Z,97977.56
2022-12-25T08:28:53.440Z,97956.09
2022-12-25T08:31:23.592Z,97965.44
2022-12-25T08:33:53.591Z,97962.13
2022-12-25T08:36:21.244Z,97965.44
2022-12-25T08:38:50.350Z,97973.94
2022-12-25T08:41:18.805Z,97970.28
2022-12-25T08:43:46.695Z,97972.97
2022-12-25T08:46:14.323Z,97980.13
2022-12-25T08:48:42.922Z,97993.44
2022-12-25T08:51:14.373Z,97983.94
2022-12-25T08:53:42.111Z,97985.44
2022-12-25T08:56:11.313Z,97983.63
2022-12-25T08:58:38.857Z,97987.28
2022-12-25T09:01:06.928Z,97979.28
2022-12-25T09:03:35.076Z,97964.28
2022-12-25T09:06:04.276Z,97965.59
2022-12-25T09:08:31.828Z,97983.59
2022-12-25T09:11:02.987Z,97967.91
2022-12-25T09:13:32.217Z,97975.06
2022-12-25T09:15:59.752Z,97983.25
2022-12-25T09:18:27.474Z,97975.59
2022-12-25T09:21:02.301Z,98001.41
2022-12-25T09:23:30.110Z,97995.59
2022-12-25T09:26:02.548Z,97993.09
2022-12-25T09:28:30.079Z,98000.38
2022-12-25T09:30:59.112Z,97999.56
2022-12-25T09:33:27.011Z,98001.56
2022-12-25T09:35:55.911Z,97988.22
2022-12-25T09:38:23.969Z,97985.69
2022-12-25T09:40:59.452Z,97971.84
2022-12-25T09:43:28.976Z,97961.84
2022-12-25T09:46:00.389Z,97958.69
2022-12-25T09:48:31.425Z,97945.31
2022-12-25T09:51:04.150Z,97946.00
2022-12-25T09:53:38.702Z,97943.44
2022-12-25T09:56:11.488Z,97947.78
2022-12-25T09:58:39.139Z,97930.78
2022-12-25T10:01:17.832Z,97922.25
2022-12-25T10:04:02.843Z,97905.69
2022-12-25T10:06:43.930Z,97898.38
2022-12-25T10:09:24.389Z,97894.75
2022-12-25T10:12:06.784Z,97882.69
2022-12-25T10:14:40.817Z,97864.06
2022-12-25T10:17:27.035Z,97862.22
2022-12-25T10:20:04.097Z,97853.06
2022-12-25T10:22:36.916Z,97849.72
2022-12-25T10:25:06.825Z,97856.34
2022-12-25T10:27:41.221Z,97847.88
2022-12-25T10:30:15.957Z,97861.38
2022-12-25T10:32:46.359Z,97858.97
2022-12-25T10:35:15.330Z,97869.34
2022-12-25T10:37:45.737Z,97875.63
2022-12-25T10:40:30.758Z,97872.16
2022-12-25T10:43:06.251Z,97882.13
2022-12-25T10:45:43.963Z,97876.00
2022-12-25T10:48:21.399Z,97876.28
2022-12-25T10:50:49.304Z,97888.91
2022-12-25T10:53:22.035Z,97888.59
2022-12-25T10:56:01.473Z,97880.75
2022-12-25T10:58:30.058Z,97876.09
2022-12-25T11:01:00.245Z,97875.88
2022-12-25T11:03:32.159Z,97869.41
2022-12-25T11:06:00.158Z,97859.97
2022-12-25T11:08:30.486Z,97859.06
2022-12-25T11:11:05.887Z,97858.47
2022-12-25T11:13:35.844Z,97850.03
2022-12-25T11:16:07.026Z,97845.41
2022-12-25T11:18:44.840Z,97845.09
2022-12-25T11:21:25.266Z,97842.03
2022-12-25T11:23:59.061Z,97843.59
2022-12-25T11:26:28.512Z,97853.03
2022-12-25T11:29:00.083Z,97850.81
2022-12-25T11:31:36.551Z,97840.78
2022-12-25T11:34:08.660Z,97838.28
2022-12-25T11:36:45.214Z,97835.22
2022-12-25T11:39:22.800Z,97828.59
2022-12-25T11:41:54.713Z,97816.16
2022-12-25T11:44:34.431Z,97817.34
2022-12-25T11:47:12.680Z,97818.91
2022-12-25T11:49:50.076Z,97818.09
2022-12-25T11:52:20.330Z,97821.03
2022-12-25T11:54:56.690Z,97814.75
2022-12-25T11:57:25.265Z,97814.13
2022-12-25T11:59:58.484Z,97805.34
2022-12-25T12:02:34.007Z,97799.59
2022-12-25T12:05:19.574Z,97789.75
2022-12-25T12:07:58.328Z,97787.72
2022-12-25T12:10:33.731Z,97779.72
2022-12-25T12:13:21.040Z,97780.75
2022-12-25T12:15:50.209Z,97767.94
2022-12-25T12:18:24.089Z,97763.97
2022-12-25T12:21:05.378Z,97752.88
2022-12-25T12:23:36.880Z,97757.91
2022-12-25T12:26:05.560Z,97750.41
2022-12-25T12:28:38.920Z,97746.50
2022-12-25T12:31:07.459Z,97740.50
2022-12-25T12:33:39.099Z,97730.44
2022-12-25T12:36:12.611Z,97717.44
2022-12-25T12:38:43.346Z,97723.72
2022-12-25T12:41:13.739Z,97721.19
2022-12-25T12:43:44.338Z,97720.44
2022-12-25T12:46:26.200Z,97712.19
2022-12-25T12:49:10.123Z,97711.72
2022-12-25T12:51:39.341Z,97713.59
2022-12-25T12:54:20.317Z,97710.28
2022-12-25T12:57:01.078Z,97701.97
2022-12-25T12:59:40.930Z,97709.94
2022-12-25T13:02:27.377Z,97718.25
2022-12-25T13:05:00.559Z,97712.03
2022-12-25T13:07:49.539Z,97712.19
2022-12-25T13:10:26.710Z,97720.63
2022-12-25T13:12:56.029Z,97716.34
2022-12-25T13:15:27.956Z,97729.16
2022-12-25T13:18:00.314Z,97725.59
2022-12-25T13:20:39.663Z,97716.94
2022-12-25T13:23:25.948Z,97704.88
2022-12-25T13:25:54.730Z,97706.06
2022-12-25T13:28:26.127Z,97702.50
2022-12-25T13:30:53.663Z,97707.75
2022-12-25T13:33:21.201Z,97700.66
2022-12-25T13:35:48.857Z,97697.28
2022-12-25T13:38:18.822Z,97690.47
2022-12-25T13:41:12.124Z,97678.94
2022-12-25T13:43:43.209Z,97677.72
2022-12-25T13:46:13.646Z,97671.97
2022-12-25T13:48:41.267Z,97680.00
2022-12-25T13:51:16.590Z,97693.47
2022-12-25T13:53:45.509Z,97685.34
2022-12-25T13:56:15.937Z,97688.38
2022-12-25T13:58:45.441Z,97684.78
2022-12-25T14:01:31.927Z,97683.66
2022-12-25T14:04:00.532Z,97688.94
2022-12-25T14:06:29.920Z,97686.59
2022-12-25T14:09:00.909Z,97687.22
2022-12-25T14:11:30.397Z,97686.84
2022-12-25T14:14:00.729Z,97692.91
2022-12-25T14:16:29.046Z,97689.91
2022-12-25T14:18:59.037Z,97688.91
2022-12-25T14:21:30.844Z,97692.47
2022-12-25T14:24:00.484Z,97694.47
2022-12-25T14:26:30.374Z,97687.38
2022-12-25T14:29:15.344Z,97681.53
2022-12-25T14:31:46.300Z,97690.03
2022-12-25T14:34:18.658Z,97693.03
2022-12-25T14:36:46.485Z,97697.06
2022-12-25T14:39:28.267Z,97699.19
2022-12-25T14:41:55.926Z,97690.72
2022-12-25T14:44:32.115Z,97686.97
2022-12-25T14:47:14.631Z,97686.38
2022-12-25T14:49:42.202Z,97686.94
2022-12-25T14:52:17.815Z,97682.56
2022-12-25T14:54:49.212Z,97676.00
2022-12-25T14:57:26.982Z,97670.00
2022-12-25T14:59:59.842Z,97665.44
2022-12-25T15:02:27.598Z,97648.28
2022-12-25T15:04:55.307Z,97645.50
2022-12-25T15:07:27.546Z,97656.38
2022-12-25T15:10:36.745Z,97659.63
2022-12-25T15:12:48.111Z,97663.66
2022-12-25T15:15:15.630Z,97668.94
2022-12-25T15:17:43.177Z,97665.59
2022-12-25T15:20:16.059Z,97664.50
2022-12-25T15:23:10.161Z,97658.81
2022-12-25T15:25:32.977Z,97656.84
2022-12-25T15:28:00.455Z,97659.16
2022-12-25T15:30:28.053Z,97669.50
2022-12-25T15:32:55.595Z,97676.59
2022-12-25T15:35:23.321Z,97675.38
2022-12-25T15:37:50.793Z,97669.84
2022-12-25T15:40:19.653Z,97676.78
2022-12-25T15:42:49.899Z,97665.81
2022-12-25T15:45:21.304Z,97676.50
2022-12-25T15:47:49.119Z,97691.81
2022-12-25T15:50:18.672Z,97686.88
2022-12-25T15:52:46.905Z,97686.59
2022-12-25T15:55:15.373Z,97679.38
2022-12-25T15:57:44.577Z,97677.19
2022-12-25T16:00:22.510Z,97664.06
2022-12-25T16:02:50.380Z,97669.09
2022-12-25T16:05:18.111Z,97662.91
2022-12-25T16:07:45.538Z,97676.00
2022-12-25T16:10:16.818Z,97674.25
2022-12-25T16:12:45.215Z,97682.19
2022-12-25T16:15:14.502Z,97676.59
2022-12-25T16:17:43.504Z,97676.56
2022-12-25T16:20:11.924Z,97673.56
2022-12-25T16:22:42.217Z,97661.66
2022-12-25T16:25:14.564Z,97660.09
2022-12-25T16:27:42.176Z,97667.28
2022-12-25T16:30:11.650Z,97664.34
2022-12-25T16:32:39.137Z,97664.34
2022-12-25T16:35:09.112Z,97649.50
2022-12-25T16:37:36.669Z,97641.50
2022-12-25T16:40:05.310Z,97646.09
2022-12-25T16:42:35.079Z,97660.38
2022-12-25T16:45:02.594Z,97660.91
2022-12-25T16:47:30.773Z,97670.69
2022-12-25T16:49:58.225Z,97661.94
2022-12-25T16:52:27.120Z,97650.50
2022-12-25T16:54:54.612Z,97667.28
2022-12-25T16:57:22.082Z,97656.25
2022-12-25T16:59:49.979Z,97659.44
2022-12-25T17:02:19.410Z,97670.41
2022-12-25T17:04:47.779Z,97673.25
2022-12-25T17:07:17.054Z,97685.53
2022-12-25T17:09:48.433Z,97677.41
2022-12-25T17:12:16.505Z,97659.81
2022-12-25T17:14:44.239Z,97659.19
2022-12-25T17:17:11.725Z,97651.44
2022-12-25T17:19:39.176Z,97649.31
2022-12-25T17:22:07.267Z,97640.03
2022-12-25T17:24:36.274Z,97640.41
2022-12-25T17:27:08.404Z,97638.38
2022-12-25T17:29:36.400Z,97634.66
2022-12-25T17:32:04.010Z,97634.94
2022-12-25T17:34:31.432Z,97640.84
2022-12-25T17:36:58.887Z,97644.53
2022-12-25T17:39:26.465Z,97640.66
2022-12-25T17:41:53.927Z,97633.94
2022-12-25T17:44:22.824Z,97646.00
2022-12-25T17:46:51.106Z,97646.94
2022-12-25T17:49:21.091Z,97641.88
2022-12-25T17:51:49.187Z,97650.22
2022-12-25T17:54:16.699Z,97661.28
2022-12-25T17:56:44.205Z,97659.16
2022-12-25T17:59:18.152Z,97644.28
2022-12-25T18:01:48.904Z,97633.00
2022-12-25T18:04:16.653Z,97620.78
2022-12-25T18:06:44.139Z,97632.09
2022-12-25T18:09:12.787Z,97614.59
2022-12-25T18:11:44.321Z,97606.31
2022-12-25T18:14:15.307Z,97595.06
2022-12-25T18:16:44.880Z,97598.31
2022-12-25T18:19:17.517Z,97601.22
2022-12-25T18:21:45.002Z,97622.72
2022-12-25T18:24:12.461Z,97633.28
2022-12-25T18:26:40.154Z,97628.13
2022-12-25T18:29:07.856Z,97631.63
2022-12-25T18:31:35.827Z,97639.75
2022-12-25T18:34:03.390Z,97640.41
2022-12-25T18:36:32.290Z,97640.28
2022-12-25T18:39:00.151Z,97628.84
2022-12-25T18:41:30.140Z,97633.66
2022-12-25T18:44:00.216Z,97629.50
2022-12-25T18:46:28.410Z,97631.19
2022-12-25T18:48:57.046Z,97637.16
2022-12-25T18:51:27.528Z,97636.72
2022-12-25T18:54:01.490Z,97641.94
2022-12-25T18:56:28.958Z,97655.94
2022-12-25T18:58:56.402Z,97655.84
2022-12-25T19:01:26.092Z,97661.97
2022-12-25T19:04:00.223Z,97644.25
2022-12-25T19:06:33.055Z,97625.28
2022-12-25T19:09:09.173Z,97629.53
2022-12-25T19:11:42.039Z,97626.38
2022-12-25T19:14:11.715Z,97627.41
2022-12-25T19:16:39.383Z,97621.13
2022-12-25T19:19:06.858Z,97615.41
2022-12-25T19:21:34.305Z,97609.81
2022-12-25T19:24:03.099Z,97610.50
2022-12-25T19:26:30.653Z,97607.84
2022-12-25T19:28:58.123Z,97602.63
2022-12-25T19:31:25.719Z,97598.94
2022-12-25T19:33:53.227Z,97598.09
2022-12-25T19:36:21.091Z,97602.34
2022-12-25T19:38:48.676Z,97600.72
2022-12-25T19:41:19.580Z,97600.88
2022-12-25T19:43:49.720Z,97608.25
2022-12-25T19:46:20.947Z,97611.38
2022-12-25T19:48:48.842Z,97610.00
2022-12-25T19:51:17.979Z,97611.94
2022-12-25T19:53:48.459Z,97623.34
2022-12-25T19:56:17.545Z,97639.47
2022-12-25T19:58:45.823Z,97631.06
2022-12-25T20:01:17.198Z,97640.59
2022-12-25T20:03:46.648Z,97640.59
2022-12-25T20:06:18.633Z,97640.00
2022-12-25T20:08:46.514Z,97645.28
2022-12-25T20:11:13.981Z,97652.91
2022-12-25T20:13:42.913Z,97663.97
2022-12-25T20:16:10.867Z,97666.25
2022-12-25T20:18:38.917Z,97667.09
2022-12-25T20:21:09.260Z,97666.25
2022-12-25T20:23:36.839Z,97671.44
2022-12-25T20:26:05.769Z,97675.94
2022-12-25T20:28:35.686Z,97682.88
2022-12-25T20:31:08.251Z,97675.66
2022-12-25T20:33:37.467Z,97669.84
2022-12-25T20:36:06.058Z,97675.03
2022-12-25T20:38:33.750Z,97673.81
2022-12-25T20:41:26.375Z,97674.66
2022-12-25T20:43:50.312Z,97680.06
2022-12-25T20:46:19.331Z,97687.41
2022-12-25T20:48:47.927Z,97686.34
2022-12-25T20:51:17.602Z,97684.94
2022-12-25T20:53:45.987Z,97677.00
2022-12-25T20:56:15.955Z,97681.03
2022-12-25T20:58:43.728Z,97677.78
2022-12-25T21:01:14.523Z,97683.72
2022-12-25T21:03:43.489Z,97678.78
2022-12-25T21:06:11.516Z,97686.25
2022-12-25T21:08:40.622Z,97689.75
2022-12-25T21:11:09.146Z,97681.66
2022-12-25T21:13:40.215Z,97677.84
2022-12-25T21:16:09.629Z,97674.72
2022-12-25T21:18:37.272Z,97675.19
2022-12-25T21:21:07.745Z,97672.88
2022-12-25T21:23:36.984Z,97676.47
2022-12-25T21:26:11.562Z,97667.81
2022-12-25T21:28:39.074Z,97657.41
2022-12-25T21:31:07.746Z,97662.47
2022-12-25T21:33:52.865Z,97660.28
2022-12-25T21:36:24.768Z,97657.78
2022-12-25T21:38:57.608Z,97657.13
2022-12-25T21:41:25.671Z,97668.00
2022-12-25T21:43:53.556Z,97675.81
2022-12-25T21:46:21.096Z,97677.69
2022-12-25T21:48:49.120Z,97678.22
2022-12-25T21:51:36.237Z,97662.47
2022-12-25T21:54:08.538Z,97661.84
2022-12-25T21:56:43.592Z,97656.22
2022-12-25T21:59:15.855Z,97659.63
2022-12-25T22:01:44.357Z,97671.41
2022-12-25T22:04:12.947Z,97686.41
2022-12-25T22:06:58.096Z,97691.91
2022-12-25T22:09:27.060Z,97694.13
2022-12-25T22:12:12.402Z,97701.13
2022-12-25T22:14:57.159Z,97699.00
2022-12-25T22:17:44.188Z,97701.97
2022-12-25T22:20:14.090Z,97715.31
2022-12-25T22:22:41.572Z,97711.75
2022-12-25T22:25:11.290Z,97709.44
2022-12-25T22:27:40.383Z,97709.38
2022-12-25T22:30:10.476Z,97713.41
2022-12-25T22:32:38.050Z,97710.38
2022-12-25T22:35:06.403Z,97707.88
2022-12-25T22:37:33.928Z,97704.41
2022-12-25T22:40:02.398Z,97718.38
2022-12-25T22:42:31.434Z,97714.88
2022-12-25T22:44:59.227Z,97720.41
2022-12-25T22:47:26.712Z,97721.72
2022-12-25T22:49:54.321Z,97731.38
2022-12-25T22:52:21.988Z,97724.94
2022-12-25T22:54:49.440Z,97725.38
2022-12-25T22:57:16.976Z,97724.19
2022-12-25T22:59:45.845Z,97732.94
2022-12-25T23:02:13.540Z,97729.44
2022-12-25T23:04:41.146Z,97724.56
2022-12-25T23:07:08.642Z,97726.75
2022-12-25T23:09:36.066Z,97715.94
2022-12-25T23:12:03.625Z,97719.75
2022-12-25T23:14:39.637Z,97724.09
2022-12-25T23:17:30.813Z,97726.75
2022-12-25T23:20:17.079Z,97732.63
2022-12-25T23:23:02.303Z,97731.81
2022-12-25T23:25:48.327Z,97734.56
2022-12-25T23:28:35.852Z,97735.22
2022-12-25T23:31:02.465Z,97741.22
2022-12-25T23:33:31.427Z,97734.69
2022-12-25T23:35:58.903Z,97736.44
2022-12-25T23:38:26.380Z,97735.88
2022-12-25T23:40:53.846Z,97739.28
2022-12-25T23:43:21.296Z,97746.75
2022-12-25T23:45:48.763Z,97751.25
2022-12-25T23:48:16.344Z,97754.47
2022-12-25T23:50:45.136Z,97757.31
2022-12-25T23:53:12.498Z,97756.75
2022-12-25T23:55:42.120Z,97758.97
2022-12-25T23:58:09.817Z,97764.50
